Airfield :
LOGIN :

Register | Disclaimer

   EN    FR    IT 

 










Legend :    VFR   Marginal VFR   IFR   Intensive IFR   Very Intensive IFR
Visi :
Ceiling :
>= 8 km
>= 3000ft
5 to 8 km
1000 to 3000 ft
1500m to 5 km
500 to 1000 ft
800 to 1500m
200 to 500 ft
< 800m
< 200 ft
Symbols :   Thunderstorms  Fog  Heavy snow  Heavy precipitations  Wind > 20 kt
SIGMETs :     Misc.  Thunderstorms  Icing  Turbulence  Mountain Waves  Volcanic Ashes






- Airport Elevation : 141 ft
- IATA code : SKS


EKSP - Srydstrup Vojens

CURRENT METAR :
  • 282020Z 30007KT 9999 FEW017 SCT180 09/07 Q1011

EXPIRED METARs :
  • 281950Z 29009KT 9999 FEW017 SCT180 10/07 Q1012
  • 281920Z 29010KT 9999 FEW017 SCT180 10/07 Q1011
  • 281850Z 29010KT 9999 FEW017 SCT180 11/07 Q1011
  • 281820Z 30011KT 9999 FEW017 SCT180 11/07 Q1011
  • 281750Z 30011KT 9999 FEW017 SCT041 12/07 Q1011
  • 281720Z 29013KT 9999 SCT020 SCT044 12/08 Q1011

TAF TAF EKSP
Valid from the 28 at 15:00 until the 29 at 15:00 UTC


281412Z 2815/2915 28015KT 9999 BKN030
BECMG 2816/2819 29005KT
TEMPO 2901/2905 3000 MIFG



MET'MAP, your aeronautical weather chart ! - Copyright ORBIFLY December 2007 - Disclaimer

ORBIFLY MET'MAP TEAM :

Programming & Development : Alexandra Zaïnal
Original concept : Baudouin d'Aumeries
Technical & hardware support : Manuel Goepfert
Assistance : Marc-Olivier Méhu

Contact : metmap@orbifly.com




SOURCES & CREDITS :

   NOAA